Flight Track Log - Related Links

Times and Time Zones

All times are in EDT time to prevent confusion due to time zone crossing. See the UAL1062 flight status page for this flight to view local times or setup timezone preferences in your user account.

Time Position Orientation Groundspeed Altitude Reporting Facility
EDT Latitude Longitude Course Direction KTS MPH feet Rate Location/Type
Mon 05:32:45 PM 39.8263 -104.6420 90° East 198 228 5,600  Level FlightAware ADS-B
Mon 05:32:51 PM 39.8201 -104.6420 180° South 205 236 5,800 1,800 Climbing FlightAware ADS-B
Mon 05:32:55 PM 39.8172 -104.6430 195° South 209 241 5,900 2,250 Climbing FlightAware ADS-B
Mon 05:32:59 PM 39.8125 -104.6440 189° South 212 244 6,100 2,667 Climbing FlightAware ADS-B
Mon 05:33:04 PM 39.8083 -104.6450 190° South 213 245 6,300 1,500 Climbing FlightAware ADS-B
Mon 05:33:19 PM 39.7936 -104.6510 197° South 222 255 6,600 1,125 Climbing FlightAware ADS-B
Mon 05:33:36 PM 39.7766 -104.6580 198° South 234 269 6,900 1,500 Climbing FlightAware ADS-B
Mon 05:33:51 PM 39.7603 -104.6640 196° South 242 278 7,400 2,077 Climbing FlightAware ADS-B
Mon 05:34:02 PM 39.7483 -104.6680 194° South 245 282 7,800 1,875 Climbing FlightAware ADS-B
Mon 05:34:07 PM 39.7432 -104.6710 204° Southwest 245 282 7,900 2,000 Climbing FlightAware ADS-B
Mon 05:34:11 PM 39.7391 -104.6740 209° Southwest 246 283 8,100 1,579 Climbing FlightAware ADS-B
Mon 05:34:26 PM 39.7270 -104.6910 227° Southwest 249 287 8,400 1,333 Climbing FlightAware ADS-B
Mon 05:34:29 PM 39.7256 -104.6950 246° West 261 300 8,500 750 Climbing FlightAware ADS-B
Mon 05:34:34 PM 39.7240 -104.7030 255° West 266 306 8,500 1,333 Level FlightAware ADS-B
Mon 05:34:38 PM 39.7233 -104.7090 261° West 270 311 8,700 1,500 Climbing FlightAware ADS-B
Mon 05:34:46 PM 39.7231 -104.7220 269° West 277 319 8,800 960 Climbing FlightAware ADS-B
Mon 05:35:03 PM 39.7233 -104.7520 271° West 290 334 9,100 1,588 Climbing FlightAware ADS-B
Mon 05:35:20 PM 39.7236 -104.7820 271° West 295 339 9,700 1,525 Climbing FlightAware ADS-B
Mon 05:36:02 PM 39.7239 -104.8610 270° West 323 372 10,600 1,479 Climbing FlightAware ADS-B
Mon 05:36:33 PM 39.7236 -104.9250 270° West 345 397 11,500 2,182 Climbing FlightAware ADS-B
Mon 05:37:08 PM 39.7232 -104.9960 270° West 344 396 13,000 2,364 Climbing FlightAware ADS-B
Mon 05:37:39 PM 39.7213 -105.0630 268° West 352 405 14,100 2,323 Climbing FlightAware ADS-B
Mon 05:38:10 PM 39.7187 -105.1260 267° West 354 407 15,400 2,459 Climbing FlightAware ADS-B
Mon 05:38:40 PM 39.7164 -105.1900 267° West 353 406 16,600 2,375 Climbing FlightAware ADS-B
Mon 05:38:58 PM 39.7148 -105.2300 267° West 355 409 17,300 2,222 Climbing FlightAware ADS-B
Mon 05:39:07 PM 39.7128 -105.2490 262° West 355 409 17,600 2,250 Climbing FlightAware ADS-B
Mon 05:39:22 PM 39.7057 -105.2790 253° West 360 414 18,200 1,957 Climbing FlightAware ADS-B
Mon 05:39:53 PM 39.6879 -105.3420 250° West 369 425 19,100 1,839 Climbing FlightAware ADS-B
Mon 05:40:24 PM 39.6693 -105.4070 250° West 375 432 20,100 1,905 Climbing FlightAware ADS-B
Mon 05:40:56 PM 39.6503 -105.4760 250° West 382 440 21,100 1,655 Climbing FlightAware ADS-B
Mon 05:41:22 PM 39.6347 -105.5330 250° West 390 449 21,700 1,167 Climbing FlightAware ADS-B
Mon 05:41:32 PM 39.6299 -105.5560 255° West 401 461 21,800 706 Climbing FlightAware ADS-B
Mon 05:41:39 PM 39.6281 -105.5710 261° West 404 465 21,900 429 Climbing FlightAware ADS-B
Mon 05:41:46 PM 39.6278 -105.5890 269° West 410 472 21,900 545 Level FlightAware ADS-B
Mon 05:41:50 PM 39.6282 -105.5980 273° West 413 475 22,000 1,000 Climbing FlightAware ADS-B
Mon 05:41:58 PM 39.6307 -105.6170 280° West 417 480 22,100 1,500 Climbing FlightAware ADS-B
Mon 05:42:26 PM 39.6451 -105.6860 285° West 419 482 22,900 1,950 Climbing FlightAware ADS-B
Mon 05:42:38 PM 39.6502 -105.7140 283° West 413 475 23,400 2,471 Climbing FlightAware ADS-B
Mon 05:42:43 PM 39.6516 -105.7270 278° West 410 472 23,600 3,000 Climbing FlightAware ADS-B
Mon 05:42:52 PM 39.6523 -105.7500 272° West 407 468 24,100 2,667 Climbing FlightAware ADS-B
Mon 05:43:01 PM 39.6513 -105.7720 267° West 406 467 24,400 1,800 Climbing FlightAware ADS-B
Mon 05:43:12 PM 39.6479 -105.7990 261° West 408 470 24,700 1,680 Climbing FlightAware ADS-B
Mon 05:43:26 PM 39.6410 -105.8300 254° West 410 472 25,100 1,227 Climbing FlightAware ADS-B
Mon 05:43:56 PM 39.6221 -105.9000 251° West 419 482 25,600 800 Climbing FlightAware ADS-B
Mon 05:44:26 PM 39.6027 -105.9730 251° West 432 497 25,900 787 Climbing FlightAware ADS-B
Mon 05:44:57 PM 39.5827 -106.0490 251° West 443 510 26,400 984 Climbing FlightAware ADS-B
Mon 05:45:27 PM 39.5624 -106.1260 251° West 451 519 26,900 1,082 Climbing FlightAware ADS-B
Mon 05:45:58 PM 39.5412 -106.2050 251° West 456 525 27,500 1,182 Climbing FlightAware ADS-B
Mon 05:46:33 PM 39.5166 -106.2970 251° West 459 528 28,200 1,200 Climbing FlightAware ADS-B
Mon 05:47:03 PM 39.4953 -106.3750 251° West 459 528 28,800 1,300 Climbing FlightAware ADS-B
Mon 05:47:33 PM 39.4741 -106.4530 251° West 459 528 29,500 1,452 Climbing FlightAware ADS-B
Mon 05:48:05 PM 39.4520 -106.5330 250° West 455 524 30,300 1,548 Climbing FlightAware ADS-B
Mon 05:48:35 PM 39.4308 -106.6100 250° West 452 520 31,100 1,377 Climbing FlightAware ADS-B
Mon 05:49:06 PM 39.4094 -106.6890 251° West 451 519 31,700 1,180 Climbing FlightAware ADS-B
Mon 05:49:36 PM 39.3882 -106.7660 250° West 451 519 32,300 1,100 Climbing FlightAware ADS-B
Mon 05:50:06 PM 39.3670 -106.8420 250° West 455 524 32,800 923 Climbing FlightAware ADS-B
Mon 05:50:41 PM 39.3425 -106.9310 250° West 455 524 33,300 1,015 Climbing FlightAware ADS-B
Mon 05:51:11 PM 39.3209 -107.0080 250° West 456 525 33,900 774 Climbing FlightAware ADS-B
Mon 05:51:43 PM 39.2980 -107.0900 250° West 451 519 34,100 831 Climbing FlightAware ADS-B
Mon 05:52:16 PM 39.2755 -107.1700 250° West 443 510 34,800 1,333 Climbing FlightAware ADS-B
Mon 05:52:46 PM 39.2543 -107.2450 250° West 438 504 35,500 1,082 Climbing FlightAware ADS-B
Mon 05:53:17 PM 39.2335 -107.3200 250° West 438 504 35,900 492 Climbing FlightAware ADS-B
Mon 05:53:47 PM 39.2125 -107.3940 250° West 440 506 36,000 100 Climbing FlightAware ADS-B
Mon 05:54:17 PM 39.1914 -107.4690 250° West 441 507 36,000  Level FlightAware ADS-B
Mon 05:55:00 PM 39.1615 -107.5740 250° West 442 509 36,000  Level FlightAware ADS-B
Mon 05:55:33 PM 39.1420 -107.6420 250° West 442 509 36,000  Level FlightAware ADS-B
Mon 05:56:08 PM 39.1140 -107.7400 250° West 442 509 36,000  Level FlightAware ADS-B
Mon 05:56:48 PM 39.0870 -107.8320 249° West 443 510 36,000  Level FlightAware ADS-B
Mon 05:57:18 PM 39.0680 -107.8980 250° West 443 510 36,000  Level FlightAware ADS-B
Mon 05:57:56 PM 39.0400 -107.9970 250° West 442 509 36,000  Level FlightAware ADS-B
Mon 05:58:33 PM 39.0110 -108.0970 250° West 443 510 36,000  Level FlightAware ADS-B
Mon 05:59:04 PM 38.9940 -108.1560 250° West 444 511 36,000  Level FlightAware ADS-B
Mon 05:59:47 PM 38.9580 -108.2790 249° West 445 512 36,000  Level FlightAware ADS-B
Mon 06:00:19 PM 38.9370 -108.3510 249° West 444 511 36,000  Level FlightAware ADS-B
Mon 06:00:54 PM 38.9100 -108.4410 249° West 443 510 36,000  Level FlightAware ADS-B
Mon 06:01:30 PM 38.8840 -108.5300 249° West 443 510 36,000  Level FlightAware ADS-B
Mon 06:02:09 PM 38.8590 -108.6140 249° West 443 510 36,000  Level FlightAware ADS-B
Mon 06:02:46 PM 38.8280 -108.7190 249° West 444 511 36,000  Level FlightAware ADS-B
Mon 06:03:24 PM 38.8020 -108.8060 249° West 444 511 36,000  Level FlightAware ADS-B
Mon 06:03:56 PM 38.7790 -108.8830 249° West 444 511 36,000  Level FlightAware ADS-B
Mon 06:04:31 PM 38.7540 -108.9660 249° West 444 511 36,000  Level FlightAware ADS-B
Mon 06:05:04 PM 38.7260 -109.0580 249° West 443 510 36,000  Level FlightAware ADS-B
Mon 06:05:42 PM 38.7000 -109.1460 249° West 442 509 36,000  Level FlightAware ADS-B
Mon 06:06:13 PM 38.6800 -109.2120 249° West 441 507 36,000  Level FlightAware ADS-B
Mon 06:06:52 PM 38.6520 -109.3030 249° West 441 507 36,000  Level FlightAware ADS-B
Mon 06:07:34 PM 38.6200 -109.4090 249° West 442 509 36,000  Level FlightAware ADS-B
Mon 06:08:07 PM 38.5950 -109.4890 248° West 442 509 36,000  Level FlightAware ADS-B
Mon 06:08:42 PM 38.5720 -109.5850 253° West 442 509 36,000  Level FlightAware ADS-B
Mon 06:09:22 PM 38.5540 -109.6750 256° West 443 510 36,000  Level FlightAware ADS-B
Mon 06:09:54 PM 38.5360 -109.7630 255° West 440 506 36,000  Level FlightAware ADS-B
Mon 06:10:29 PM 38.5190 -109.8530 256° West 433 498 36,000  Level FlightAware ADS-B
Mon 06:11:04 PM 38.5030 -109.9390 257° West 432 497 36,000  Level FlightAware ADS-B
Mon 06:11:47 PM 38.4820 -110.0520 257° West 433 498 36,000  Level FlightAware ADS-B
Mon 06:12:20 PM 38.4630 -110.1330 253° West 436 502 36,000  Level FlightAware ADS-B
Mon 06:12:53 PM 38.4320 -110.2080 242° Southwest 439 505 36,000  Level FlightAware ADS-B
Mon 06:13:28 PM 38.4020 -110.2740 240° Southwest 440 506 36,000  Level FlightAware ADS-B
Mon 06:14:07 PM 38.3580 -110.3720 240° Southwest 438 504 36,000  Level FlightAware ADS-B
Mon 06:14:45 PM 38.3250 -110.4440 240° Southwest 438 504 36,000  Level FlightAware ADS-B
Mon 06:15:24 PM 38.2790 -110.5460 240° Southwest 437 503 36,000  Level FlightAware ADS-B
Mon 06:15:56 PM 38.2470 -110.6160 240° Southwest 435 501 36,000  Level FlightAware ADS-B
Mon 06:16:44 PM 38.2020 -110.7140 240° Southwest 432 497 36,000  Level FlightAware ADS-B
Mon 06:17:25 PM 38.1580 -110.8110 240° Southwest 432 497 36,000  Level FlightAware ADS-B
Mon 06:17:55 PM 38.1300 -110.8720 240° Southwest 432 497 36,000  Level FlightAware ADS-B
Mon 06:18:33 PM 38.0930 -110.9520 240° Southwest 432 497 36,000  Level FlightAware ADS-B
Mon 06:19:07 PM 38.0680 -111.0050 239° Southwest 432 497 36,000  Level FlightAware ADS-B
Mon 06:19:43 PM 38.0360 -111.0720 239° Southwest 432 497 36,000  Level FlightAware ADS-B
Mon 06:20:19 PM 38.0050 -111.1380 239° Southwest 432 497 36,000  Level FlightAware ADS-B
Mon 06:20:55 PM 37.9730 -111.2050 239° Southwest 432 497 36,000  Level FlightAware ADS-B
Mon 06:21:31 PM 37.9420 -111.2710 239° Southwest 432 497 36,000  Level FlightAware ADS-B
Mon 06:22:07 PM 37.9100 -111.3380 239° Southwest 432 497 36,000  Level FlightAware ADS-B
Mon 06:22:43 PM 37.8790 -111.4040 239° Southwest 432 497 36,000  Level FlightAware ADS-B
Mon 06:23:17 PM 37.8490 -111.4670 239° Southwest 432 497 36,000  Level FlightAware ADS-B
Mon 06:23:53 PM 37.8180 -111.5330 239° Southwest 432 497 36,000  Level FlightAware ADS-B
Mon 06:24:29 PM 37.7860 -111.6000 239° Southwest 432 497 36,000  Level FlightAware ADS-B
Mon 06:25:05 PM 37.7540 -111.6660 238° Southwest 432 497 36,000  Level FlightAware ADS-B
Mon 06:25:41 PM 37.7230 -111.7320 239° Southwest 432 497 36,000  Level FlightAware ADS-B
Mon 06:26:17 PM 37.6910 -111.7980 239° Southwest 432 497 36,000  Level FlightAware ADS-B
Mon 06:26:53 PM 37.6600 -111.8650 240° Southwest 432 497 36,000  Level FlightAware ADS-B
Mon 06:27:29 PM 37.6280 -111.9310 239° Southwest 432 497 36,000  Level FlightAware ADS-B
Mon 06:28:06 PM 37.5960 -111.9990 239° Southwest 432 497 36,000 -630 Level FlightAware ADS-B
Mon 06:33:50 PM 37.1150 -113.0050 239° Southwest 448 516 32,000 -628 Descending FlightAware ADS-B
Mon 06:34:28 PM 37.0790 -113.0780 238° Southwest 449 517 32,000  Level FlightAware ADS-B
Mon 06:34:58 PM 37.0410 -113.1550 238° Southwest 450 518 32,000  Level FlightAware ADS-B
Mon 06:35:34 PM 37.0010 -113.2360 238° Southwest 446 513 32,000 -833 Level FlightAware ADS-B
Mon 06:36:10 PM 36.9630 -113.3130 238° Southwest 435 501 31,000 -1,886 Descending FlightAware ADS-B
Mon 06:36:44 PM 36.9270 -113.3840 238° Southwest 428 493 29,800 -1,325 Descending FlightAware ADS-B
Mon 06:37:27 PM 36.8870 -113.4650 238° Southwest 425 489 29,300 -2,104 Descending FlightAware ADS-B
Mon 06:38:01 PM 36.8470 -113.5450 238° Southwest 419 482 27,100 -2,914 Descending FlightAware ADS-B
Mon 06:38:37 PM 36.8120 -113.6160 238° Southwest 413 475 25,900 -2,087 Descending FlightAware ADS-B
Mon 06:39:10 PM 36.7780 -113.6830 238° Southwest 404 465 24,700 -2,087 Descending FlightAware ADS-B
Mon 06:39:46 PM 36.7420 -113.7550 238° Southwest 397 457 23,500 -1,944 Descending FlightAware ADS-B
Mon 06:40:21 PM 36.7080 -113.8220 238° Southwest 390 449 22,400 -1,859 Descending FlightAware ADS-B
Mon 06:40:57 PM 36.6750 -113.8880 238° Southwest 382 440 21,300 -1,644 Descending FlightAware ADS-B
Mon 06:41:34 PM 36.6400 -113.9570 238° Southwest 366 421 20,400 -1,147 Descending FlightAware ADS-B
Mon 06:42:05 PM 36.6150 -114.0080 239° Southwest 345 397 20,000 -1,433 Descending FlightAware ADS-B
Mon 06:42:41 PM 36.5840 -114.0690 238° Southwest 337 388 18,800 -1,865 Descending FlightAware ADS-B
Mon 06:43:19 PM 36.5540 -114.1310 239° Southwest 325 374 17,700 -1,833 Descending FlightAware ADS-B
Mon 06:43:53 PM 36.5290 -114.1860 241° Southwest 317 365 16,600 -1,727 Descending FlightAware ADS-B
Mon 06:44:25 PM 36.5070 -114.2350 241° Southwest 314 361 15,800 -1,569 Descending FlightAware ADS-B
Mon 06:44:58 PM 36.4830 -114.2870 240° Southwest 310 357 14,900 -1,562 Descending FlightAware ADS-B
Mon 06:45:38 PM 36.4550 -114.3500 241° Southwest 304 350 13,900 -1,421 Descending FlightAware ADS-B
Mon 06:46:14 PM 36.4310 -114.4020 240° Southwest 300 345 13,100 -1,324 Descending FlightAware ADS-B
Mon 06:46:46 PM 36.4080 -114.4510 240° Southwest 294 338 12,400 -1,375 Descending FlightAware ADS-B
Mon 06:47:02 PM 36.3960 -114.4710 233° Southwest 288 331 12,000 -1,000 Descending FlightAware ADS-B
Mon 06:47:10 PM 36.3860 -114.4800 216° Southwest 287 330 12,000  Level FlightAware ADS-B
Mon 06:47:22 PM 36.3710 -114.4870 201° Southwest 290 334 12,000  Level FlightAware ADS-B
Mon 06:47:58 PM 36.3230 -114.4990 191° South 294 338 12,000 -716 Level FlightAware ADS-B
Mon 06:48:29 PM 36.2830 -114.5100 192° South 295 339 11,200 -1,277 Descending FlightAware ADS-B
Mon 06:48:45 PM 36.2620 -114.5210 203° Southwest 296 341 11,000 -808 Descending FlightAware ADS-B
Mon 06:49:21 PM 36.2280 -114.5630 225° Southwest 283 326 10,500 -1,125 Descending FlightAware ADS-B
Mon 06:49:49 PM 36.2030 -114.5960 227° Southwest 281 323 9,800 -1,375 Descending FlightAware ADS-B
Mon 06:50:09 PM 36.1850 -114.6190 226° Southwest 279 321 9,400 -1,333 Descending FlightAware ADS-B
Mon 06:50:25 PM 36.1730 -114.6390 233° Southwest 278 320 9,000 -1,241 Descending FlightAware ADS-B
Mon 06:50:38 PM 36.1670 -114.6580 249° West 274 315 8,800 -857 Descending FlightAware ADS-B
Mon 06:50:53 PM 36.1620 -114.6800 254° West 268 308 8,600 -686 Descending FlightAware ADS-B
Mon 06:51:13 PM 36.1570 -114.7090 258° West 258 297 8,400 -585 Descending FlightAware ADS-B
Mon 06:51:34 PM 36.1510 -114.7390 256° West 245 282 8,200 -732 Descending FlightAware ADS-B
Mon 06:51:54 PM 36.1460 -114.7660 257° West 240 276 7,900 -833 Descending FlightAware ADS-B
Mon 06:52:10 PM 36.1440 -114.7850 263° West 235 270 7,700 -1,000 Descending FlightAware ADS-B
Mon 06:52:30 PM 36.1420 -114.8140 265° West 234 269 7,300 -1,171 Descending FlightAware ADS-B
Mon 06:52:51 PM 36.1400 -114.8430 265° West 232 267 6,900 -1,024 Descending FlightAware ADS-B
Mon 06:53:11 PM 36.1390 -114.8690 267° West 230 265 6,600 -955 Descending FlightAware ADS-B
Mon 06:53:35 PM 36.1360 -114.9000 263° West 225 259 6,200 -1,091 Descending FlightAware ADS-B
Mon 06:53:55 PM 36.1350 -114.9260 267° West 225 259 5,800 -923 Descending FlightAware ADS-B
Mon 06:54:14 PM 36.1330 -114.9480 264° West 224 258 5,600 -857 Descending FlightAware ADS-B
Mon 06:54:51 PM 36.1340 -114.9960 271° West 213 245 5,000 -1,053 Descending FlightAware ADS-B
Mon 06:55:11 PM 36.1340 -115.0200 270° West 208 239 4,600 -1,050 Descending FlightAware ADS-B
Mon 06:55:31 PM 36.1350 -115.0430 273° West 197 227 4,300 -900 Descending FlightAware ADS-B
Mon 06:55:51 PM 36.1350 -115.0650 270° West 192 221 4,000 -900 Descending FlightAware ADS-B
Mon 06:56:11 PM 36.1360 -115.0870 273° West 190 219 3,700 -837 Descending FlightAware ADS-B
Mon 06:56:34 PM 36.1370 -115.1100 273° West 180 207 3,400 -360 Descending FlightAware ADS-B
Mon 06:57:01 PM 36.1370 -115.1340 270° West 180 207 3,400 -960 Level FlightAware ADS-B
Mon 06:57:24 PM 36.1170 -115.1470 208° Southwest 158 182 2,600 -1,535 Descending FlightAware ADS-B
Mon 06:57:44 PM 36.1040 -115.1540 204° Southwest 160 184 2,300 -453 Descending FlightAware ADS-B
Mon 06:58:17 PM 36.0850 -115.1650 205° Southwest 159 183 2,200 -182 Descending FlightAware ADS-B

Login

Don't have an account? Register now (free) for customized features, flight alerts, and more!